Time;durP1;ratioP1;P1;durP2;ratioP2;P2;SDS_P1;SDS_P2;PMS_P1;PMS_P2;Temp;Humidity;BMP_temperature;BMP_pressure;BME280_temperature;BME280_humidity;BME280_pressure;Samples;Min_cycle;Max_cycle;Signal;HPM_P1;HPM_P2
2022/07/02 00:02:26;;;;;;;62.72;49.03;;;25.20;99.90;;;;;;5054947;28;20504;-67
2022/07/02 00:05:08;;;;;;;66.75;51.75;;;25.40;99.90;;;;;;5055296;28;20437;-66
2022/07/02 00:07:34;;;;;;;;;;;25.40;99.90;;;;;;5055823;28;20036;-66
2022/07/02 00:10:01;;;;;;;63.10;47.00;;;25.40;99.90;;;;;;5055100;28;19912;-67
2022/07/02 00:12:29;;;;;;;56.63;46.22;;;25.40;99.90;;;;;;5055450;28;20032;-67
2022/07/02 00:14:59;;;;;;;58.05;46.03;;;25.50;99.90;;;;;;5055372;28;20036;-67
2022/07/02 00:17:26;;;;;;;73.57;51.83;;;25.50;99.90;;;;;;5055227;28;20036;-67
2022/07/02 00:19:53;;;;;;;64.35;48.35;;;25.50;99.90;;;;;;5055232;28;20024;-66
2022/07/02 00:22:21;;;;;;;64.55;49.38;;;25.60;99.90;;;;;;5055314;28;20028;-67
2022/07/02 00:24:47;;;;;;;64.95;49.30;;;25.70;99.90;;;;;;5055477;28;20160;-66
2022/07/02 00:27:18;;;;;;;71.25;50.88;;;25.80;99.90;;;;;;5054938;28;20382;-65
2022/07/02 00:30:06;;;;;;;74.88;52.72;;;25.80;99.90;;;;;;5054980;28;20432;-66
2022/07/02 00:32:35;;;;;;;69.22;52.15;;;25.90;99.90;;;;;;5054782;28;20029;-67
2022/07/02 00:35:12;;;;;;;78.38;54.67;;;25.90;99.90;;;;;;5054749;28;20048;-67
2022/07/02 00:37:39;;;;;;;77.90;56.85;;;26.00;99.90;;;;;;5054628;28;20039;-67
2022/07/02 00:40:07;;;;;;;78.68;62.28;;;26.00;99.90;;;;;;5054750;28;20500;-66
2022/07/02 00:42:36;;;;;;;96.38;65.75;;;26.00;99.90;;;;;;5053878;28;20027;-65
2022/07/02 00:45:04;;;;;;;76.82;58.60;;;26.10;99.90;;;;;;5054532;28;20029;-66
2022/07/02 00:47:31;;;;;;;86.88;57.17;;;26.10;99.90;;;;;;5054641;28;20071;-66
2022/07/02 00:49:57;;;;;;;88.15;68.22;;;26.20;99.90;;;;;;5054611;28;20028;-66
2022/07/02 00:52:24;;;;;;;102.15;70.47;;;26.30;99.90;;;;;;5054565;28;20029;-67
2022/07/02 00:54:50;;;;;;;103.90;71.22;;;26.20;99.90;;;;;;5054727;28;20020;-67
2022/07/02 00:57:17;;;;;;;120.60;83.57;;;26.20;99.90;;;;;;5053966;28;20074;-67
2022/07/02 00:59:44;;;;;;;116.15;83.82;;;26.10;99.90;;;;;;5053944;28;20013;-67
2022/07/02 01:02:11;;;;;;;108.40;75.97;;;26.00;99.90;;;;;;5052969;28;20067;-66
2022/07/02 01:04:40;;;;;;;128.73;88.03;;;26.00;99.90;;;;;;5053256;28;20115;-67
2022/07/02 01:07:10;;;;;;;137.18;94.35;;;26.10;99.90;;;;;;5051641;28;20056;-67
2022/07/02 01:12:27;;;;;;;135.70;90.63;;;26.00;99.90;;;;;;5053850;28;20474;-65
2022/07/02 01:14:56;;;;;;;124.25;86.82;;;26.00;99.90;;;;;;5054145;28;20033;-66
2022/07/02 01:17:23;;;;;;;92.40;59.83;;;26.00;99.90;;;;;;5053858;28;20044;-66
2022/07/02 01:19:50;;;;;;;96.80;66.53;;;25.90;99.90;;;;;;5053980;28;20021;-66
2022/07/02 01:22:20;;;;;;;97.20;64.22;;;26.00;99.90;;;;;;5054062;28;20111;-67
2022/07/02 01:24:51;;;;;;;89.65;64.50;;;25.90;99.90;;;;;;5053783;28;20117;-66
2022/07/02 01:27:19;;;;;;;90.68;61.15;;;25.90;99.90;;;;;;5053593;28;20033;-66
2022/07/02 01:29:46;;;;;;;82.55;58.60;;;26.00;99.90;;;;;;5053892;28;20036;-67
2022/07/02 01:32:14;;;;;;;73.15;51.70;;;26.00;99.90;;;;;;5054130;28;20424;-67
2022/07/02 01:34:42;;;;;;;85.53;56.95;;;26.00;99.90;;;;;;5053545;28;20036;-67
2022/07/02 01:37:12;;;;;;;93.57;65.10;;;26.00;99.90;;;;;;5053760;28;20079;-66
2022/07/02 01:39:41;;;;;;;89.97;61.45;;;26.10;99.90;;;;;;5053591;28;20103;-66
2022/07/02 01:42:08;;;;;;;95.35;61.80;;;26.20;99.90;;;;;;5053243;28;20104;-66
2022/07/02 01:44:36;;;;;;;82.35;60.67;;;26.30;99.90;;;;;;5053622;28;20040;-66
2022/07/02 01:47:05;;;;;;;83.90;60.35;;;26.40;99.90;;;;;;5053597;28;20092;-67
2022/07/02 01:49:32;;;;;;;82.72;59.55;;;26.50;99.90;;;;;;5053278;28;20063;-66
2022/07/02 01:51:59;;;;;;;95.60;65.97;;;26.60;99.90;;;;;;5050390;28;20481;-66
2022/07/02 01:54:26;;;;;;;86.40;62.20;;;26.70;99.90;;;;;;5053561;28;20031;-66
2022/07/02 01:56:52;;;;;;;83.00;60.08;;;26.80;99.90;;;;;;5053168;28;20017;-65
2022/07/02 01:59:19;;;;;;;76.38;56.45;;;26.90;99.90;;;;;;5053338;28;20048;-66
2022/07/02 02:01:46;;;;;;;82.47;56.15;;;26.90;99.90;;;;;;5053342;28;20032;-66
2022/07/02 02:04:13;;;;;;;77.57;55.25;;;26.90;99.90;;;;;;5053318;28;20382;-66
2022/07/02 02:06:40;;;;;;;85.40;57.58;;;27.00;99.90;;;;;;5053321;28;20151;-66
2022/07/02 02:09:07;;;;;;;87.30;59.05;;;27.00;99.90;;;;;;5053332;28;20032;-64
2022/07/02 02:11:34;;;;;;;68.93;47.97;;;27.00;99.90;;;;;;5053066;28;20120;-64
2022/07/02 02:14:01;;;;;;;79.93;53.53;;;27.10;99.90;;;;;;5053137;28;20025;-72
2022/07/02 02:16:29;;;;;;;65.53;48.33;;;27.20;99.90;;;;;;5053347;28;20091;-69
2022/07/02 02:18:57;;;;;;;86.38;55.92;;;27.30;99.90;;;;;;5053213;28;20025;-69
2022/07/02 02:21:25;;;;;;;75.55;51.03;;;27.40;99.90;;;;;;5053299;28;20029;-69
2022/07/02 02:23:52;;;;;;;62.63;46.17;;;27.40;99.90;;;;;;5053180;28;20029;-66
2022/07/02 02:26:18;;;;;;;81.57;49.05;;;27.50;99.90;;;;;;5053087;28;20021;-66
2022/07/02 02:28:45;;;;;;;69.03;46.67;;;27.60;99.90;;;;;;5053201;28;20021;-67
2022/07/02 02:31:11;;;;;;;69.20;44.55;;;27.60;99.90;;;;;;5053065;28;20096;-67
2022/07/02 02:33:38;;;;;;;71.55;49.08;;;27.60;99.90;;;;;;5052333;28;20419;-66
2022/07/02 02:36:05;;;;;;;70.80;50.92;;;27.70;99.90;;;;;;5051744;28;20041;-64
2022/07/02 02:38:31;;;;;;;84.05;50.75;;;27.70;99.90;;;;;;5052029;28;20523;-66
2022/07/02 02:40:58;;;;;;;65.25;46.40;;;27.70;99.90;;;;;;5051704;28;20017;-67
2022/07/02 02:43:25;;;;;;;70.63;51.83;;;27.60;99.90;;;;;;5052337;28;20025;-70
2022/07/02 02:45:51;;;;;;;88.28;54.88;;;27.50;99.90;;;;;;5052670;28;20025;-65
2022/07/02 02:48:18;;;;;;;68.13;49.03;;;27.50;99.90;;;;;;5052807;28;20083;-68
2022/07/02 02:50:44;;;;;;;75.30;53.05;;;27.50;99.90;;;;;;5053346;28;20032;-67
2022/07/02 02:53:11;;;;;;;98.82;62.55;;;27.50;99.90;;;;;;5053224;28;20124;-68
2022/07/02 02:55:37;;;;;;;91.97;61.42;;;27.60;99.90;;;;;;5052597;28;20075;-67
2022/07/02 02:58:04;;;;;;;94.15;62.00;;;27.60;99.90;;;;;;5053226;28;20021;-67
2022/07/02 03:00:31;;;;;;;77.75;54.92;;;27.70;99.90;;;;;;5052899;28;20100;-67
2022/07/02 03:03:06;;;;;;;79.22;52.55;;;27.70;99.90;;;;;;5053019;28;20017;-70
2022/07/02 03:05:32;;;;;;;67.18;49.90;;;27.70;99.90;;;;;;5034298;28;20025;-68
2022/07/02 03:08:01;;;;;;;87.13;58.33;;;27.60;99.90;;;;;;5052416;28;20071;-69
2022/07/02 03:10:28;;;;;;;80.10;58.15;;;27.60;99.90;;;;;;5052483;28;20549;-71
2022/07/02 03:12:54;;;;;;;78.35;56.92;;;27.60;99.90;;;;;;5052736;28;20486;-69
2022/07/02 03:15:21;;;;;;;72.75;54.03;;;27.70;99.90;;;;;;5052572;28;20025;-69
2022/07/02 03:17:48;;;;;;;90.18;59.53;;;27.70;99.90;;;;;;5052340;28;20029;-66
2022/07/02 03:20:14;;;;;;;68.78;49.53;;;27.60;99.90;;;;;;5052254;28;20017;-67
2022/07/02 03:22:41;;;;;;;73.50;54.50;;;27.60;99.90;;;;;;5052946;28;20041;-67
2022/07/02 03:25:08;;;;;;;74.45;51.67;;;27.50;99.90;;;;;;5053697;28;20063;-67
2022/07/02 03:27:35;;;;;;;68.03;48.88;;;27.50;99.90;;;;;;5056451;28;20021;-65
2022/07/02 03:30:03;;;;;;;61.63;47.67;;;27.40;99.90;;;;;;5056259;28;20478;-66
2022/07/02 03:32:31;;;;;;;65.03;49.30;;;27.40;99.90;;;;;;5056532;28;20147;-67
2022/07/02 03:34:57;;;;;;;64.00;45.00;;;27.30;99.90;;;;;;5056254;28;20049;-67
2022/07/02 03:37:28;;;;;;;71.60;51.22;;;27.30;99.90;;;;;;5056428;28;20031;-66
2022/07/02 03:39:55;;;;;;;59.58;43.60;;;27.30;99.90;;;;;;5056123;28;20017;-66
2022/07/02 03:42:22;;;;;;;62.05;45.60;;;27.30;99.90;;;;;;5054918;28;20438;-67
2022/07/02 03:44:48;;;;;;;48.92;40.20;;;27.40;99.90;;;;;;5056122;28;20036;-67
2022/07/02 03:47:15;;;;;;;49.90;40.17;;;27.40;99.90;;;;;;5056246;28;20021;-66
2022/07/02 03:49:42;;;;;;;56.72;40.40;;;27.50;99.90;;;;;;5056118;28;20020;-66
2022/07/02 03:52:08;;;;;;;51.38;40.15;;;27.60;99.90;;;;;;5054440;28;20033;-67
2022/07/02 03:54:35;;;;;;;52.80;39.13;;;27.60;99.90;;;;;;5054074;28;20029;-67
2022/07/02 03:57:03;;;;;;;53.83;41.38;;;27.70;99.90;;;;;;5053519;28;20021;-66
2022/07/02 03:59:29;;;;;;;55.25;39.25;;;27.80;99.90;;;;;;5053952;28;20046;-63
2022/07/02 04:01:56;;;;;;;59.10;38.55;;;27.80;99.90;;;;;;5054216;28;20044;-64
2022/07/02 04:04:22;;;;;;;48.10;35.55;;;27.90;99.90;;;;;;5054126;28;20052;-65
2022/07/02 04:06:49;;;;;;;51.38;37.20;;;27.90;99.90;;;;;;5055109;28;20033;-66
2022/07/02 04:09:15;;;;;;;58.80;40.65;;;27.90;99.90;;;;;;5055449;28;20103;-65
2022/07/02 04:11:42;;;;;;;48.90;34.83;;;28.00;99.90;;;;;;5055246;28;20124;-66
2022/07/02 04:14:09;;;;;;;53.78;37.20;;;28.00;99.90;;;;;;5055515;28;20041;-66
2022/07/02 04:16:35;;;;;;;52.38;37.05;;;28.00;99.90;;;;;;5055708;28;20025;-65
2022/07/02 04:19:02;;;;;;;55.10;39.90;;;28.00;99.90;;;;;;5055515;28;20124;-66
2022/07/02 04:21:28;;;;;;;47.42;37.00;;;28.00;99.90;;;;;;5055441;28;20091;-65
2022/07/02 04:23:55;;;;;;;52.13;37.67;;;28.10;99.90;;;;;;5055405;28;20040;-66
2022/07/02 04:26:21;;;;;;;90.68;62.05;;;28.20;99.90;;;;;;5054984;28;20029;-64
2022/07/02 04:28:48;;;;;;;95.47;63.38;;;28.10;99.90;;;;;;5055217;28;20462;-64
2022/07/02 04:31:14;;;;;;;67.07;47.17;;;28.10;99.90;;;;;;5055388;28;20021;-65
2022/07/02 04:33:41;;;;;;;62.20;43.55;;;28.20;99.90;;;;;;5054955;28;20060;-68
2022/07/02 04:36:07;;;;;;;55.55;41.97;;;28.20;99.90;;;;;;5054246;28;20084;-66
2022/07/02 04:38:34;;;;;;;61.70;44.97;;;28.20;99.90;;;;;;5035570;28;20028;-68
2022/07/02 04:41:01;;;;;;;64.95;46.17;;;28.20;99.90;;;;;;5047176;28;20017;-71
2022/07/02 04:43:28;;;;;;;62.10;40.13;;;28.30;99.90;;;;;;5055192;28;20032;-69
2022/07/02 04:45:54;;;;;;;61.97;41.15;;;28.30;99.90;;;;;;5055195;28;20025;-67
2022/07/02 04:48:21;;;;;;;57.10;43.03;;;28.30;99.90;;;;;;5054811;28;20028;-69
2022/07/02 04:50:48;;;;;;;60.90;41.00;;;28.30;99.90;;;;;;5054674;28;20436;-68
2022/07/02 04:53:14;;;;;;;53.17;38.80;;;28.30;99.90;;;;;;5055221;28;20029;-77
2022/07/02 04:55:41;;;;;;;55.72;38.83;;;28.40;99.90;;;;;;5035670;28;20035;-74
2022/07/02 04:58:07;;;;;;;58.55;38.55;;;28.40;99.90;;;;;;5043007;28;20017;-76
2022/07/02 05:00:34;;;;;;;64.57;42.30;;;28.40;99.90;;;;;;5053107;28;20418;-71
2022/07/02 05:03:00;;;;;;;112.22;68.10;;;28.40;99.90;;;;;;5046534;28;20053;-77
2022/07/02 05:05:27;;;;;;;60.22;40.65;;;28.40;99.90;;;;;;5034222;28;20025;-72
2022/07/02 05:07:54;;;;;;;52.45;39.90;;;28.50;99.90;;;;;;5033340;28;20727;-69
2022/07/02 05:10:20;;;;;;;70.90;44.25;;;28.50;99.90;;;;;;5034105;28;20027;-70
2022/07/02 05:12:47;;;;;;;89.65;64.68;;;28.50;99.90;;;;;;5036249;28;20036;-70
2022/07/02 05:15:14;;;;;;;75.32;46.25;;;28.60;99.90;;;;;;5054345;28;20028;-70
2022/07/02 05:17:40;;;;;;;96.40;58.75;;;28.70;99.90;;;;;;5054559;28;20021;-70
2022/07/02 05:20:07;;;;;;;66.97;45.55;;;28.70;99.90;;;;;;5054042;28;20021;-72
2022/07/02 05:22:34;;;;;;;63.83;45.97;;;28.80;99.90;;;;;;5053330;28;20021;-70
2022/07/02 05:25:00;;;;;;;63.60;45.65;;;28.70;99.90;;;;;;5053440;28;20116;-68
2022/07/02 05:27:27;;;;;;;72.03;49.33;;;28.80;99.90;;;;;;5053760;28;20025;-68
2022/07/02 05:29:53;;;;;;;67.80;47.03;;;28.80;99.90;;;;;;5053857;28;20025;-69
2022/07/02 05:32:20;;;;;;;61.45;46.33;;;28.80;99.90;;;;;;5044702;28;20129;-69
2022/07/02 05:34:46;;;;;;;60.60;41.40;;;28.90;99.90;;;;;;5051257;28;20040;-69
2022/07/02 05:37:13;;;;;;;56.15;42.83;;;29.00;99.90;;;;;;5054546;28;20031;-68
2022/07/02 05:39:39;;;;;;;57.50;44.00;;;29.00;99.90;;;;;;5054195;28;20044;-69
2022/07/02 05:42:06;;;;;;;62.85;44.95;;;29.00;99.90;;;;;;5046690;28;20018;-70
2022/07/02 05:44:33;;;;;;;53.38;42.90;;;29.00;99.90;;;;;;5044149;28;20037;-68
2022/07/02 05:46:59;;;;;;;58.83;42.63;;;29.10;99.90;;;;;;5053632;28;20021;-68
2022/07/02 05:49:26;;;;;;;53.50;39.92;;;29.10;99.90;;;;;;5054032;28;20024;-69
2022/07/02 05:51:52;;;;;;;58.22;42.42;;;29.00;99.90;;;;;;5053895;28;20104;-72
2022/07/02 05:54:19;;;;;;;69.55;53.88;;;29.00;99.90;;;;;;5053774;28;20116;-72
2022/07/02 05:56:45;;;;;;;164.43;112.50;;;29.10;99.90;;;;;;5053999;28;20013;-72
2022/07/02 05:59:12;;;;;;;172.05;121.55;;;29.10;99.90;;;;;;5053579;28;20021;-71
2022/07/02 06:01:38;;;;;;;96.03;72.22;;;29.20;99.90;;;;;;5052470;28;20056;-70
2022/07/02 06:04:05;;;;;;;67.10;54.80;;;29.10;99.90;;;;;;5051029;28;20025;-70
2022/07/02 06:09:18;;;;;;;77.25;56.03;;;29.10;99.90;;;;;;5051184;28;21520;-69
2022/07/02 06:11:44;;;;;;;59.97;46.83;;;29.30;99.90;;;;;;5050499;28;20028;-71
2022/07/02 06:14:11;;;;;;;63.15;43.40;;;29.50;99.90;;;;;;5040690;28;20497;-78
2022/07/02 06:16:37;;;;;;;66.72;46.30;;;29.70;99.90;;;;;;5051173;28;20032;-77
2022/07/02 06:19:06;;;;;;;60.42;44.00;;;29.90;99.90;;;;;;5053180;28;20521;-71
2022/07/02 06:21:34;;;;;;;57.60;41.75;;;29.90;99.90;;;;;;5053270;28;20036;-68
2022/07/02 06:24:01;;;;;;;54.25;41.75;;;30.00;99.90;;;;;;5053716;28;20021;-71
2022/07/02 06:26:27;;;;;;;55.78;44.22;;;30.00;99.90;;;;;;5053519;28;20482;-71
2022/07/02 06:28:54;;;;;;;60.88;45.03;;;30.00;99.90;;;;;;5052979;28;20056;-71
2022/07/02 06:31:20;;;;;;;54.55;41.97;;;30.00;99.90;;;;;;5052951;28;20032;-71
2022/07/02 06:33:47;;;;;;;52.72;41.17;;;30.00;99.90;;;;;;5053096;28;20028;-71
2022/07/02 06:36:14;;;;;;;54.53;39.75;;;30.00;99.90;;;;;;5052955;28;20490;-70
2022/07/02 06:38:41;;;;;;;43.55;35.10;;;30.10;99.90;;;;;;5052956;28;20039;-70
2022/07/02 06:43:54;;;;;;;44.20;32.30;;;30.30;99.90;;;;;;5052830;28;20025;-76
2022/07/02 06:46:21;;;;;;;46.83;36.25;;;30.30;99.90;;;;;;5052588;28;20100;-77
2022/07/02 06:48:47;;;;;;;46.83;36.00;;;30.50;99.90;;;;;;5052803;28;20024;-76
2022/07/02 06:51:14;;;;;;;46.42;36.40;;;30.70;99.90;;;;;;5052617;28;20391;-77
2022/07/02 06:53:41;;;;;;;45.75;36.38;;;30.80;99.90;;;;;;5052254;28;20028;-76
2022/07/02 06:56:08;;;;;;;45.28;34.05;;;30.80;99.90;;;;;;5052270;28;20474;-76
2022/07/02 06:58:35;;;;;;;44.85;34.17;;;30.70;99.90;;;;;;5052622;28;20025;-76
2022/07/02 07:01:01;;;;;;;46.80;36.03;;;30.70;99.90;;;;;;5055768;28;20369;-75
2022/07/02 07:03:28;;;;;;;45.55;31.88;;;30.60;99.90;;;;;;5056362;28;20029;-77
2022/07/02 07:05:54;;;;;;;35.92;28.90;;;30.50;99.90;;;;;;5056074;28;20381;-77
2022/07/02 07:08:21;;;;;;;36.05;26.58;;;30.30;99.90;;;;;;5056473;28;20053;-75
2022/07/02 07:10:47;;;;;;;38.38;28.95;;;30.30;99.90;;;;;;5056177;28;20017;-75
2022/07/02 07:13:14;;;;;;;35.10;27.42;;;30.30;99.90;;;;;;5056426;28;20066;-77
2022/07/02 07:15:40;;;;;;;34.50;27.10;;;30.30;99.90;;;;;;5056382;28;20025;-73
2022/07/02 07:18:07;;;;;;;39.10;30.42;;;30.20;99.90;;;;;;5056606;28;20025;-73
2022/07/02 07:20:36;;;;;;;34.30;29.48;;;30.10;99.90;;;;;;5055652;28;20013;-75
2022/07/02 07:23:02;;;;;;;39.92;28.80;;;30.10;99.90;;;;;;5055623;28;20036;-73
2022/07/02 07:25:30;;;;;;;47.08;31.30;;;30.10;99.90;;;;;;5057082;28;20017;-74
2022/07/02 07:27:57;;;;;;;39.90;31.27;;;30.10;99.90;;;;;;5056658;28;20443;-73
2022/07/02 07:30:23;;;;;;;31.85;23.20;;;30.10;99.90;;;;;;5056809;28;20032;-71
2022/07/02 07:32:51;;;;;;;33.33;19.40;;;30.00;99.90;;;;;;5055076;28;20431;-72
2022/07/02 07:35:17;;;;;;;25.83;18.40;;;29.80;99.90;;;;;;5055433;28;20045;-65
2022/07/02 07:37:57;;;;;;;31.90;21.10;;;29.70;99.90;;;;;;5055644;28;20075;-65
2022/07/02 07:40:24;;;;;;;25.73;17.98;;;29.50;99.90;;;;;;5054667;28;20017;-66
2022/07/02 07:42:51;;;;;;;31.90;18.42;;;29.30;99.90;;;;;;5055223;28;20023;-66
2022/07/02 07:45:17;;;;;;;26.42;18.10;;;29.20;99.90;;;;;;5055655;28;20033;-66
2022/07/02 07:47:44;;;;;;;30.52;21.25;;;29.10;99.90;;;;;;5055697;28;20418;-67
2022/07/02 07:50:10;;;;;;;36.33;23.30;;;28.80;99.90;;;;;;5055509;28;20083;-66
2022/07/02 07:52:37;;;;;;;24.73;19.90;;;28.70;99.90;;;;;;5055453;28;20045;-67
2022/07/02 07:55:05;;;;;;;30.05;19.02;;;28.50;99.90;;;;;;5055115;28;20385;-66
2022/07/02 07:57:31;;;;;;;25.92;19.83;;;28.40;99.90;;;;;;5055510;28;20028;-67
2022/07/02 07:59:58;;;;;;;38.20;23.17;;;28.30;99.90;;;;;;5055335;28;20462;-67
2022/07/02 08:02:24;;;;;;;32.58;22.95;;;28.20;99.90;;;;;;5055447;28;20064;-67
2022/07/02 08:04:51;;;;;;;29.05;21.92;;;28.20;99.90;;;;;;5055458;28;20021;-67
2022/07/02 08:07:17;;;;;;;36.22;22.80;;;28.20;99.90;;;;;;5055127;28;20116;-66
2022/07/02 08:09:45;;;;;;;34.03;21.65;;;28.20;99.90;;;;;;5055338;28;20025;-67
2022/07/02 08:12:12;;;;;;;27.23;20.67;;;28.20;99.90;;;;;;5054686;28;20028;-68
2022/07/02 08:14:38;;;;;;;35.08;24.63;;;28.10;99.90;;;;;;5051573;28;20389;-65
2022/07/02 08:17:05;;;;;;;49.55;33.50;;;28.10;99.90;;;;;;5052163;28;20029;-64
2022/07/02 08:19:32;;;;;;;84.90;59.28;;;28.20;99.90;;;;;;5055783;28;20025;-65
2022/07/02 08:21:58;;;;;;;72.78;48.05;;;28.20;99.90;;;;;;5054467;28;20485;-65
2022/07/02 08:24:25;;;;;;;37.58;26.95;;;28.30;99.90;;;;;;5054633;28;20036;-64
2022/07/02 08:26:51;;;;;;;99.05;78.75;;;28.30;99.90;;;;;;5054187;28;20061;-65
2022/07/02 08:29:18;;;;;;;34.17;21.73;;;28.20;99.90;;;;;;5054872;28;20025;-71
2022/07/02 08:31:44;;;;;;;40.35;28.02;;;28.20;99.90;;;;;;5054434;28;20024;-68
2022/07/02 08:34:11;;;;;;;299.20;214.30;;;28.20;99.90;;;;;;5054820;28;20183;-71
2022/07/02 08:36:37;;;;;;;65.78;51.97;;;28.20;99.90;;;;;;5053967;28;20040;-69
2022/07/02 08:39:04;;;;;;;78.00;61.63;;;28.20;99.90;;;;;;5054780;28;20094;-70
2022/07/02 08:41:31;;;;;;;24.05;16.95;;;28.20;99.90;;;;;;5054067;28;20032;-73
2022/07/02 08:44:02;;;;;;;19.58;15.45;;;28.20;99.90;;;;;;5036536;28;20543;-71
2022/07/02 08:46:29;;;;;;;16.45;13.93;;;28.20;99.90;;;;;;5054510;28;20021;-70
2022/07/02 08:48:57;;;;;;;15.90;14.20;;;28.20;99.90;;;;;;5054685;28;20083;-71
2022/07/02 08:51:23;;;;;;;22.77;15.25;;;28.20;99.90;;;;;;5054178;28;20025;-75
2022/07/02 08:53:52;;;;;;;25.55;18.83;;;28.30;99.90;;;;;;5054310;28;20021;-77
2022/07/02 08:56:20;;;;;;;22.63;15.15;;;28.30;99.90;;;;;;5049566;28;20484;-77
2022/07/02 08:58:50;;;;;;;23.30;16.50;;;28.30;99.90;;;;;;5054814;28;20079;-77
2022/07/02 09:01:17;;;;;;;22.40;16.85;;;28.30;99.90;;;;;;5054342;28;20028;-78
2022/07/02 09:03:45;;;;;;;22.30;15.80;;;28.30;99.90;;;;;;5054762;28;20096;-78
2022/07/02 09:06:12;;;;;;;26.55;16.15;;;28.30;99.90;;;;;;5036026;28;20063;-77
2022/07/02 09:08:41;;;;;;;19.10;13.80;;;28.30;99.90;;;;;;5054325;28;20021;-78
2022/07/02 09:11:08;;;;;;;23.48;16.02;;;28.30;99.90;;;;;;5035983;28;20025;-77
2022/07/02 09:13:45;;;;;;;24.10;15.57;;;28.20;99.90;;;;;;5054454;28;20106;-76
2022/07/02 09:16:12;;;;;;;27.70;17.92;;;28.20;99.90;;;;;;5002278;28;20029;-77
2022/07/02 09:18:39;;;;;;;23.77;14.85;;;28.30;99.90;;;;;;5015138;28;20037;-77
2022/07/02 09:21:06;;;;;;;17.48;13.45;;;28.20;99.90;;;;;;5053944;28;20100;-76
2022/07/02 09:23:32;;;;;;;23.02;14.82;;;28.20;99.90;;;;;;5053238;28;20017;-77
2022/07/02 09:26:03;;;;;;;26.23;19.48;;;28.20;99.90;;;;;;5053759;28;20112;-77
2022/07/02 09:28:30;;;;;;;22.15;15.98;;;28.20;99.90;;;;;;5035912;28;20485;-77
2022/07/02 09:31:05;;;;;;;22.20;15.57;;;28.20;99.90;;;;;;5052259;28;20029;-70
2022/07/02 09:33:32;;;;;;;25.10;15.98;;;28.20;99.90;;;;;;5051495;28;20068;-70
2022/07/02 09:36:02;;;;;;;34.28;18.88;;;28.20;99.90;;;;;;5052721;28;20132;-68
2022/07/02 09:38:28;;;;;;;30.67;18.33;;;28.20;99.90;;;;;;5053366;28;20100;-69
2022/07/02 09:40:57;;;;;;;38.85;17.98;;;28.10;99.90;;;;;;5053191;28;20070;-71
2022/07/02 09:43:37;;;;;;;25.15;16.75;;;28.10;99.90;;;;;;5053430;28;20049;-67
2022/07/02 09:46:15;;;;;;;27.23;17.77;;;28.00;99.90;;;;;;5051521;28;20025;-67
2022/07/02 09:48:42;;;;;;;22.73;18.48;;;28.00;99.90;;;;;;5052864;28;20028;-67
2022/07/02 09:51:09;;;;;;;29.48;18.45;;;28.00;99.90;;;;;;5053337;28;20025;-67
2022/07/02 09:53:46;;;;;;;26.65;17.85;;;28.00;99.90;;;;;;5052736;28;20031;-67
2022/07/02 09:56:12;;;;;;;28.98;19.75;;;27.90;99.90;;;;;;5052120;28;20029;-67
2022/07/02 09:58:39;;;;;;;28.33;19.38;;;28.00;99.90;;;;;;5053376;28;20029;-67
2022/07/02 10:01:05;;;;;;;32.00;21.73;;;28.00;99.90;;;;;;5053344;28;20074;-66
2022/07/02 10:03:32;;;;;;;43.63;23.08;;;28.00;99.90;;;;;;5053491;28;20389;-67
2022/07/02 10:05:58;;;;;;;29.67;18.00;;;28.00;99.90;;;;;;5053171;28;20500;-67
2022/07/02 10:08:25;;;;;;;29.00;17.15;;;27.90;99.90;;;;;;5053169;28;20021;-67
2022/07/02 10:10:52;;;;;;;27.27;17.67;;;27.90;99.90;;;;;;5053004;28;20047;-67
2022/07/02 10:13:19;;;;;;;32.42;20.77;;;27.90;99.90;;;;;;5035069;28;20404;-67
2022/07/02 10:15:47;;;;;;;26.13;18.98;;;27.90;99.90;;;;;;5052998;28;20032;-67
2022/07/02 10:18:14;;;;;;;28.88;18.75;;;27.80;99.90;;;;;;5053166;28;20025;-66
2022/07/02 10:20:41;;;;;;;29.83;20.08;;;27.80;99.90;;;;;;5053231;28;20497;-67
2022/07/02 10:23:08;;;;;;;24.95;17.70;;;27.80;99.90;;;;;;5053061;28;20064;-67
2022/07/02 10:25:35;;;;;;;31.20;21.23;;;27.80;99.90;;;;;;5051092;28;20025;-66
2022/07/02 10:28:02;;;;;;;42.47;30.17;;;27.80;99.90;;;;;;5052864;28;20040;-67
2022/07/02 10:30:32;;;;;;;39.00;28.02;;;27.80;99.90;;;;;;5052888;28;20108;-67
2022/07/02 10:33:19;;;;;;;30.20;24.75;;;27.70;99.90;;;;;;5053007;28;20059;-67
2022/07/02 10:35:48;;;;;;;31.10;21.08;;;27.70;99.90;;;;;;5056604;28;20044;-67
2022/07/02 10:38:14;;;;;;;26.63;17.88;;;27.60;99.90;;;;;;5057107;28;20024;-67
2022/07/02 10:40:50;;;;;;;23.48;17.35;;;27.60;99.90;;;;;;5056848;28;20028;-67
2022/07/02 10:43:18;;;;;;;23.77;17.80;;;27.60;99.90;;;;;;5057043;28;20032;-67
2022/07/02 10:45:45;;;;;;;22.63;16.73;;;27.50;99.90;;;;;;5056866;28;20036;-67
2022/07/02 10:48:13;;;;;;;26.13;17.85;;;27.50;99.90;;;;;;5056734;28;20031;-67
2022/07/02 10:50:43;;;;;;;29.15;18.33;;;27.40;99.90;;;;;;5056775;28;20052;-65
2022/07/02 10:53:12;;;;;;;24.77;17.73;;;27.40;99.90;;;;;;5056728;28;20017;-67
2022/07/02 10:55:59;;;;;;;27.55;20.20;;;27.50;99.90;;;;;;5056672;28;20489;-67
2022/07/02 10:58:29;;;;;;;28.77;21.92;;;27.40;99.90;;;;;;5056585;28;20155;-67
2022/07/02 11:00:56;;;;;;;28.10;21.30;;;27.30;99.90;;;;;;5056385;28;20025;-67
2022/07/02 11:03:25;;;;;;;38.53;26.27;;;27.30;99.90;;;;;;5056564;28;20155;-67
2022/07/02 11:06:02;;;;;;;29.75;21.48;;;27.30;99.90;;;;;;5056529;28;20033;-67
2022/07/02 11:08:48;;;;;;;30.70;21.15;;;27.30;99.90;;;;;;5056660;28;20059;-66
2022/07/02 11:11:19;;;;;;;34.97;23.25;;;27.30;99.90;;;;;;5056179;28;20033;-67
2022/07/02 11:13:50;;;;;;;33.30;21.95;;;27.30;99.90;;;;;;5056349;28;20064;-66
2022/07/02 11:16:34;;;;;;;27.20;20.42;;;27.20;99.90;;;;;;5056278;28;20028;-66
2022/07/02 11:19:01;;;;;;;30.08;21.52;;;27.30;99.90;;;;;;5056197;28;20369;-66
2022/07/02 11:21:31;;;;;;;29.60;22.00;;;27.20;99.90;;;;;;5056395;28;20045;-68
2022/07/02 11:23:58;;;;;;;29.05;19.83;;;27.20;99.90;;;;;;5056354;28;20025;-67
2022/07/02 11:26:26;;;;;;;30.25;20.05;;;27.20;99.90;;;;;;5055950;28;20036;-66
2022/07/02 11:28:54;;;;;;;29.85;20.25;;;27.20;99.90;;;;;;5056022;28;20056;-67
2022/07/02 11:31:23;;;;;;;30.48;21.45;;;27.20;99.90;;;;;;5056023;28;20116;-67
2022/07/02 11:33:54;;;;;;;32.67;23.65;;;27.20;99.90;;;;;;5055551;28;20033;-67
2022/07/02 11:36:22;;;;;;;33.03;23.88;;;27.30;99.90;;;;;;5055670;28;20159;-67
2022/07/02 11:38:50;;;;;;;35.97;23.50;;;27.20;99.90;;;;;;5055892;28;20020;-67
2022/07/02 11:41:25;;;;;;;32.55;22.30;;;27.20;99.90;;;;;;5055377;28;20119;-67
2022/07/02 11:43:54;;;;;;;31.63;21.52;;;27.20;99.90;;;;;;5055707;28;20021;-68
2022/07/02 11:46:23;;;;;;;32.83;22.60;;;27.20;99.90;;;;;;5054957;28;20028;-68
2022/07/02 11:48:51;;;;;;;30.83;23.58;;;27.10;99.90;;;;;;5055492;28;20021;-67
2022/07/02 11:51:20;;;;;;;36.40;26.08;;;27.20;99.90;;;;;;5055656;28;20033;-67
2022/07/02 11:54:00;;;;;;;29.80;20.33;;;27.10;99.90;;;;;;5055665;28;20037;-67
2022/07/02 11:56:28;;;;;;;35.20;21.77;;;27.10;99.90;;;;;;5055363;28;20028;-67
2022/07/02 11:58:55;;;;;;;29.77;21.80;;;27.10;99.90;;;;;;5055092;28;20025;-73
2022/07/02 12:01:27;;;;;;;29.60;21.90;;;27.00;99.90;;;;;;5056073;28;20036;-74
2022/07/02 12:04:02;;;;;;;32.47;20.53;;;27.10;99.90;;;;;;5055409;28;20023;-73
2022/07/02 12:06:35;;;;;;;28.60;20.35;;;27.00;99.90;;;;;;5053947;28;20048;-75
2022/07/02 12:09:06;;;;;;;154.25;112.07;;;27.10;99.90;;;;;;5054000;28;20469;-67
2022/07/02 12:11:35;;;;;;;67.57;47.10;;;27.10;99.90;;;;;;5052787;28;20103;-67
2022/07/02 12:14:04;;;;;;;35.20;25.15;;;27.00;99.90;;;;;;5053637;28;20082;-67
2022/07/02 12:16:32;;;;;;;50.83;31.40;;;27.00;99.90;;;;;;5054223;28;20024;-67
2022/07/02 12:19:09;;;;;;;34.63;23.55;;;27.00;99.90;;;;;;5054674;28;20033;-66
2022/07/02 12:21:47;;;;;;;33.53;24.33;;;26.90;99.90;;;;;;5053730;28;20059;-66
2022/07/02 12:24:29;;;;;;;42.88;26.60;;;26.90;99.90;;;;;;5052535;28;20036;-66
2022/07/02 12:27:06;;;;;;;118.70;93.53;;;26.90;99.90;;;;;;5052275;28;20524;-67
2022/07/02 12:32:24;;;;;;;53.50;35.20;;;26.90;99.90;;;;;;5053349;28;20017;-67
2022/07/02 12:34:55;;;;;;;36.90;28.73;;;26.90;99.90;;;;;;5053888;28;20070;-66
2022/07/02 12:37:24;;;;;;;32.63;24.77;;;26.80;99.90;;;;;;5033997;28;20029;-67
2022/07/02 12:40:03;;;;;;;35.45;25.60;;;26.70;99.90;;;;;;5033928;28;20735;-67
2022/07/02 12:42:40;;;;;;;37.30;27.00;;;26.70;99.90;;;;;;5031689;28;20105;-67